createdAt,value
2018-03-30T00:02:05.569Z,60.50
2018-03-30T00:04:33.188Z,60.50
2018-03-30T00:07:09.636Z,60.50
2018-03-30T00:09:49.133Z,60.30
2018-03-30T00:12:17.500Z,60.00
2018-03-30T00:14:45.860Z,60.00
2018-03-30T00:17:13.477Z,60.00
2018-03-30T00:19:41.075Z,59.90
2018-03-30T00:22:08.699Z,59.70
2018-03-30T00:24:36.297Z,60.00
2018-03-30T00:27:03.912Z,59.80
2018-03-30T00:29:31.504Z,59.80
2018-03-30T00:31:59.095Z,59.80
2018-03-30T00:34:27.479Z,60.10
2018-03-30T00:36:55.837Z,59.90
2018-03-30T00:39:23.465Z,59.90
2018-03-30T00:41:51.065Z,59.90
2018-03-30T00:44:19.424Z,59.60
2018-03-30T00:46:47.986Z,59.60
2018-03-30T00:49:15.567Z,59.80
2018-03-30T00:51:43.199Z,59.70
2018-03-30T00:54:10.785Z,59.50
2018-03-30T00:56:38.411Z,59.60
2018-03-30T00:59:06.004Z,59.70
2018-03-30T01:01:33.634Z,59.60
2018-03-30T01:04:01.231Z,59.50
2018-03-30T01:06:28.870Z,59.40
2018-03-30T01:08:56.465Z,59.40
2018-03-30T01:11:24.851Z,59.60
2018-03-30T01:13:52.470Z,59.40
2018-03-30T01:16:20.055Z,59.50
2018-03-30T01:18:47.670Z,59.30
2018-03-30T01:21:15.272Z,59.40
2018-03-30T01:23:42.892Z,59.60
2018-03-30T01:26:10.497Z,59.60
2018-03-30T01:28:38.112Z,59.50
2018-03-30T01:31:05.711Z,59.60
2018-03-30T01:33:33.328Z,59.40
2018-03-30T01:36:00.926Z,59.30
2018-03-30T01:38:28.552Z,59.20
2018-03-30T01:40:56.140Z,59.40
2018-03-30T01:43:23.748Z,59.40
2018-03-30T01:45:51.348Z,59.30
2018-03-30T01:48:18.976Z,59.30
2018-03-30T01:50:47.338Z,59.30
2018-03-30T01:53:14.932Z,59.20
2018-03-30T01:55:42.548Z,59.10
2018-03-30T01:58:10.142Z,59.20
2018-03-30T02:00:38.548Z,59.10
2018-03-30T02:03:06.141Z,59.10
2018-03-30T02:05:33.733Z,59.00
2018-03-30T02:08:02.120Z,59.20
2018-03-30T02:10:30.476Z,59.20
2018-03-30T02:12:58.866Z,59.00
2018-03-30T02:15:27.253Z,58.80
2018-03-30T02:17:55.644Z,58.80
2018-03-30T02:20:24.004Z,59.10
2018-03-30T02:22:52.364Z,59.10
2018-03-30T02:25:21.489Z,59.10
2018-03-30T02:27:49.843Z,59.20
2018-03-30T02:30:18.233Z,59.10
2018-03-30T02:32:46.596Z,59.30
2018-03-30T02:35:14.960Z,59.20
2018-03-30T02:37:42.604Z,59.20
2018-03-30T02:40:10.198Z,59.10
2018-03-30T02:42:37.828Z,59.40
2018-03-30T02:45:05.433Z,59.40
2018-03-30T02:47:33.030Z,59.30
2018-03-30T02:50:00.656Z,59.20
2018-03-30T02:52:29.030Z,59.40
2018-03-30T02:54:56.648Z,59.20
2018-03-30T02:57:24.233Z,59.40
2018-03-30T02:59:53.371Z,59.10
2018-03-30T03:02:21.725Z,59.10
2018-03-30T03:04:49.351Z,59.00
2018-03-30T03:07:16.939Z,59.50
2018-03-30T03:09:44.533Z,58.90
2018-03-30T03:12:12.911Z,58.50
2018-03-30T03:14:41.272Z,58.50
2018-03-30T03:17:09.668Z,58.70
2018-03-30T03:19:38.038Z,59.20
2018-03-30T03:22:06.395Z,59.50
2018-03-30T03:24:34.024Z,59.40
2018-03-30T03:27:01.617Z,59.60
2018-03-30T03:29:29.987Z,60.00
2018-03-30T03:31:57.605Z,59.40
2018-03-30T03:34:25.295Z,59.40
2018-03-30T03:36:52.924Z,59.40
2018-03-30T03:39:20.508Z,59.30
2018-03-30T03:41:48.136Z,59.50
2018-03-30T03:44:15.738Z,59.40
2018-03-30T03:46:43.332Z,59.20
2018-03-30T03:49:10.961Z,59.10
2018-03-30T03:51:38.549Z,58.90
2018-03-30T03:54:06.144Z,58.80
2018-03-30T03:56:33.766Z,59.10
2018-03-30T03:59:01.363Z,59.30
2018-03-30T04:01:28.957Z,59.30
2018-03-30T04:03:56.568Z,59.40
2018-03-30T04:06:24.926Z,59.00
2018-03-30T04:08:53.316Z,58.70
2018-03-30T04:11:21.679Z,59.20
2018-03-30T04:13:50.065Z,59.00
2018-03-30T04:16:17.656Z,59.00
2018-03-30T04:18:45.271Z,59.10
2018-03-30T04:21:12.865Z,59.10
2018-03-30T04:23:41.264Z,59.20
2018-03-30T04:26:08.877Z,59.10
2018-03-30T04:28:36.477Z,59.40
2018-03-30T04:31:04.100Z,59.50
2018-03-30T04:33:31.694Z,59.80
2018-03-30T04:35:59.319Z,59.90
2018-03-30T04:38:27.671Z,59.90
2018-03-30T04:40:55.300Z,59.90
2018-03-30T04:43:22.892Z,59.60
2018-03-30T04:45:50.492Z,59.70
2018-03-30T04:48:18.884Z,59.70
2018-03-30T04:50:47.242Z,59.60
2018-03-30T04:53:14.868Z,59.40
2018-03-30T04:55:42.455Z,59.60
2018-03-30T04:58:10.041Z,59.30
2018-03-30T05:00:38.434Z,59.10
2018-03-30T05:03:06.023Z,59.00
2018-03-30T05:05:33.618Z,59.00
2018-03-30T05:08:02.008Z,59.70
2018-03-30T05:10:29.605Z,59.70
2018-03-30T05:12:57.226Z,59.80
2018-03-30T05:15:24.957Z,59.80
2018-03-30T05:17:52.543Z,59.50
2018-03-30T05:20:20.927Z,59.80
2018-03-30T05:22:49.298Z,60.10
2018-03-30T05:25:16.892Z,59.70
2018-03-30T05:27:44.532Z,59.60
2018-03-30T05:30:12.883Z,60.50
2018-03-30T05:32:40.507Z,59.70
2018-03-30T05:35:08.097Z,59.60
2018-03-30T05:37:35.723Z,59.60
2018-03-30T05:40:03.334Z,59.70
2018-03-30T05:42:30.933Z,59.80
2018-03-30T05:44:59.317Z,59.90
2018-03-30T05:47:28.342Z,59.80
2018-03-30T05:49:55.965Z,59.80
2018-03-30T05:52:24.323Z,60.10
2018-03-30T05:54:51.948Z,60.00
2018-03-30T05:57:19.538Z,60.10
2018-03-30T05:59:47.127Z,60.10
2018-03-30T06:02:15.512Z,60.40
2018-03-30T06:04:43.116Z,60.20
2018-03-30T06:07:10.708Z,60.50
2018-03-30T06:09:38.326Z,60.50
2018-03-30T06:12:05.932Z,60.50
2018-03-30T06:14:34.313Z,61.00
2018-03-30T06:17:02.696Z,61.00
2018-03-30T06:19:31.076Z,60.70
2018-03-30T06:21:59.444Z,60.90
2018-03-30T06:24:27.164Z,60.80
2018-03-30T06:26:54.768Z,60.70
2018-03-30T06:29:23.172Z,61.60
2018-03-30T06:31:50.775Z,61.50
2018-03-30T06:34:18.365Z,61.90
2018-03-30T06:36:46.012Z,62.20
2018-03-30T06:39:13.652Z,61.80
2018-03-30T06:41:41.244Z,63.20
2018-03-30T06:44:08.882Z,63.10
2018-03-30T06:46:36.479Z,64.10
2018-03-30T06:49:04.832Z,63.90
2018-03-30T06:51:32.460Z,63.70
2018-03-30T06:54:00.064Z,64.20
2018-03-30T06:56:27.660Z,63.80
2018-03-30T06:58:55.280Z,63.90
2018-03-30T07:01:22.877Z,64.30
2018-03-30T07:03:50.508Z,64.40
2018-03-30T07:06:18.869Z,64.20
2018-03-30T07:08:46.470Z,64.20
2018-03-30T07:11:14.852Z,65.00
2018-03-30T07:13:42.440Z,65.00
2018-03-30T07:16:10.078Z,64.60
2018-03-30T07:18:37.677Z,64.30
2018-03-30T07:21:05.276Z,64.80
2018-03-30T07:23:32.896Z,65.20
2018-03-30T07:26:00.496Z,65.70
2018-03-30T07:28:28.216Z,65.40
2018-03-30T07:30:55.811Z,65.30
2018-03-30T07:33:23.400Z,65.20
2018-03-30T07:35:51.032Z,65.10
2018-03-30T07:38:18.788Z,65.50
2018-03-30T07:40:46.372Z,65.70
2018-03-30T07:43:14.770Z,65.80
2018-03-30T07:45:42.509Z,65.60
2018-03-30T07:48:10.112Z,65.80
2018-03-30T07:50:37.743Z,65.90
2018-03-30T07:53:06.109Z,65.90
2018-03-30T07:55:33.695Z,65.70
2018-03-30T07:58:01.424Z,65.80
2018-03-30T08:00:29.019Z,66.00
2018-03-30T08:02:56.616Z,66.40
2018-03-30T08:05:24.236Z,66.60
2018-03-30T08:07:51.825Z,66.40
2018-03-30T08:10:19.460Z,66.00
2018-03-30T08:12:47.056Z,66.50
2018-03-30T08:15:14.645Z,66.60
2018-03-30T08:17:42.264Z,66.30
2018-03-30T08:20:09.864Z,66.40
2018-03-30T08:22:37.496Z,66.50
2018-03-30T08:25:05.156Z,65.80
2018-03-30T08:27:32.781Z,66.00
2018-03-30T08:30:01.137Z,66.30
2018-03-30T08:32:28.736Z,66.30
2018-03-30T08:34:56.638Z,67.30
2018-03-30T08:37:24.411Z,66.80
2018-03-30T08:39:52.192Z,66.80
2018-03-30T08:42:20.550Z,66.80
2018-03-30T08:44:48.131Z,66.60
2018-03-30T08:47:17.258Z,67.20
2018-03-30T08:49:44.846Z,67.20
2018-03-30T08:52:12.468Z,66.50
2018-03-30T08:54:40.829Z,67.10
2018-03-30T08:57:08.435Z,66.90
2018-03-30T08:59:36.060Z,68.40
2018-03-30T09:02:04.416Z,66.70
2018-03-30T09:04:32.004Z,66.50
2018-03-30T09:07:00.396Z,66.70
2018-03-30T09:09:28.008Z,66.70
2018-03-30T09:11:55.624Z,67.30
2018-03-30T09:14:23.562Z,66.00
2018-03-30T09:16:51.926Z,65.70
2018-03-30T09:19:19.543Z,65.60
2018-03-30T09:21:47.142Z,65.30
2018-03-30T09:24:14.724Z,64.80
2018-03-30T09:26:43.108Z,63.20
2018-03-30T09:29:11.467Z,64.70
2018-03-30T09:31:39.067Z,64.50
2018-03-30T09:34:06.756Z,63.50
2018-03-30T09:36:34.340Z,63.30
2018-03-30T09:39:01.944Z,62.80
2018-03-30T09:41:29.616Z,64.20
2018-03-30T09:43:58.007Z,62.80
2018-03-30T09:46:25.619Z,62.60
2018-03-30T09:48:54.032Z,63.50
2018-03-30T09:51:21.644Z,63.40
2018-03-30T09:53:50.008Z,61.70
2018-03-30T09:56:17.636Z,61.60
2018-03-30T09:58:45.226Z,61.60
2018-03-30T10:01:16.795Z,61.50
2018-03-30T10:03:48.260Z,61.40
2018-03-30T10:06:15.884Z,59.50
2018-03-30T10:08:43.503Z,61.10
2018-03-30T10:11:11.863Z,59.80
2018-03-30T10:13:39.499Z,59.80
2018-03-30T10:16:07.096Z,59.10
2018-03-30T10:18:35.455Z,59.00
2018-03-30T10:21:03.114Z,59.00
2018-03-30T10:23:30.712Z,59.10
2018-03-30T10:25:58.301Z,59.30
2018-03-30T10:28:26.049Z,58.70
2018-03-30T10:30:53.644Z,58.80
2018-03-30T10:33:21.265Z,59.60
2018-03-30T10:35:50.552Z,58.30
2018-03-30T10:38:18.948Z,58.90
2018-03-30T10:40:46.544Z,58.90
2018-03-30T10:43:14.139Z,58.30
2018-03-30T10:45:42.529Z,58.00
2018-03-30T10:48:10.894Z,58.00
2018-03-30T10:50:39.452Z,57.30
2018-03-30T10:53:07.215Z,57.20
2018-03-30T10:55:34.815Z,57.60
2018-03-30T10:58:03.220Z,58.60
2018-03-30T11:00:30.816Z,58.60
2018-03-30T11:02:58.417Z,58.60
2018-03-30T11:05:26.056Z,58.40
2018-03-30T11:07:53.656Z,58.60
2018-03-30T11:10:21.249Z,58.60
2018-03-30T11:12:48.874Z,58.10
2018-03-30T11:15:16.468Z,58.10
2018-03-30T11:17:44.092Z,57.80
2018-03-30T11:20:11.695Z,57.20
2018-03-30T11:22:39.287Z,57.40
2018-03-30T11:25:07.695Z,56.80
2018-03-30T11:27:35.288Z,56.70
2018-03-30T11:30:02.892Z,57.10
2018-03-30T11:32:31.296Z,57.80
2018-03-30T11:34:58.894Z,57.80
2018-03-30T11:37:26.489Z,57.10
2018-03-30T11:39:54.876Z,55.70
2018-03-30T11:42:23.232Z,55.40
2018-03-30T11:44:50.868Z,55.30
2018-03-30T11:47:18.530Z,55.80
2018-03-30T11:49:46.155Z,55.70
2018-03-30T11:52:13.845Z,56.10
2018-03-30T11:54:41.440Z,55.60
2018-03-30T11:57:09.070Z,54.40
2018-03-30T11:59:36.672Z,55.10
2018-03-30T12:02:05.031Z,54.20
2018-03-30T12:04:32.653Z,54.10
2018-03-30T12:07:00.255Z,54.60
2018-03-30T12:09:27.892Z,53.80
2018-03-30T12:11:55.488Z,54.10
2018-03-30T12:14:23.088Z,53.70
2018-03-30T12:16:50.716Z,54.40
2018-03-30T12:19:19.088Z,53.30
2018-03-30T12:21:46.689Z,53.20
2018-03-30T12:24:14.316Z,53.50
2018-03-30T12:26:42.676Z,53.60
2018-03-30T12:29:10.312Z,53.60
2018-03-30T12:31:37.908Z,53.50
2018-03-30T12:34:05.504Z,54.00
2018-03-30T12:36:33.119Z,53.00
2018-03-30T12:39:00.716Z,52.30
2018-03-30T12:41:28.572Z,52.40
2018-03-30T12:43:57.020Z,52.50
2018-03-30T12:46:24.624Z,52.40
2018-03-30T12:48:52.244Z,53.20
2018-03-30T12:51:19.859Z,53.20
2018-03-30T12:53:47.530Z,51.30
2018-03-30T12:56:15.130Z,51.70
2018-03-30T12:58:42.728Z,52.40
2018-03-30T13:01:10.361Z,51.60
2018-03-30T13:03:37.973Z,51.90
2018-03-30T13:06:05.625Z,51.50
2018-03-30T13:08:33.993Z,51.40
2018-03-30T13:11:01.600Z,51.40
2018-03-30T13:13:29.241Z,51.60
2018-03-30T13:15:56.845Z,50.80
2018-03-30T13:18:24.440Z,51.70
2018-03-30T13:20:52.074Z,51.80
2018-03-30T13:23:20.441Z,51.80
2018-03-30T13:25:49.568Z,52.30
2018-03-30T13:28:17.197Z,52.30
2018-03-30T13:30:44.828Z,51.50
2018-03-30T13:33:12.430Z,51.80
2018-03-30T13:35:40.032Z,51.80
2018-03-30T13:38:07.652Z,52.30
2018-03-30T13:40:35.295Z,51.80
2018-03-30T13:43:02.928Z,52.30
2018-03-30T13:45:30.515Z,52.50
2018-03-30T13:47:58.112Z,53.20
2018-03-30T13:50:30.020Z,54.00
2018-03-30T13:56:02.330Z,54.60
2018-03-30T13:58:40.599Z,54.40
2018-03-30T14:01:11.895Z,53.10
2018-03-30T14:04:05.167Z,53.10
2018-03-30T14:06:47.402Z,53.80
2018-03-30T14:12:14.132Z,53.50
2018-03-30T14:14:42.498Z,52.70
2018-03-30T14:17:11.592Z,52.60
2018-03-30T14:19:40.146Z,52.60
2018-03-30T14:22:08.484Z,53.30
2018-03-30T14:24:37.645Z,53.20
2018-03-30T14:27:10.957Z,53.20
2018-03-30T14:29:40.176Z,54.40
2018-03-30T14:32:07.779Z,54.20
2018-03-30T14:37:48.553Z,53.40
2018-03-30T14:40:20.367Z,54.10
2018-03-30T14:42:48.890Z,54.00
2018-03-30T14:48:15.633Z,54.80
2018-03-30T14:50:48.116Z,55.10
2018-03-30T14:53:16.632Z,54.80
2018-03-30T14:55:50.207Z,55.00
2018-03-30T15:01:31.191Z,52.50
2018-03-30T15:04:25.275Z,55.20
2018-03-30T15:06:54.420Z,55.60
2018-03-30T15:09:33.984Z,55.60
2018-03-30T15:12:17.328Z,55.20
2018-03-30T15:14:55.616Z,54.60
2018-03-30T15:17:38.234Z,54.20
2018-03-30T15:20:26.414Z,55.10
2018-03-30T15:23:17.657Z,53.90
2018-03-30T15:25:47.030Z,53.80
2018-03-30T15:28:15.572Z,53.40
2018-03-30T15:33:42.820Z,54.20
2018-03-30T15:36:42.128Z,53.70
2018-03-30T15:39:09.720Z,54.40
2018-03-30T15:41:38.115Z,55.20
2018-03-30T15:44:05.720Z,55.10
2018-03-30T15:46:36.128Z,55.20
2018-03-30T15:49:03.748Z,53.60
2018-03-30T15:51:33.024Z,54.20
2018-03-30T15:54:00.176Z,54.20
2018-03-30T15:56:27.777Z,53.90
2018-03-30T15:58:55.670Z,53.80
2018-03-30T16:01:23.392Z,53.90
2018-03-30T16:03:51.911Z,53.50
2018-03-30T16:06:19.722Z,53.50
2018-03-30T16:08:48.106Z,54.20
2018-03-30T16:11:18.183Z,54.20
2018-03-30T16:13:45.780Z,54.10
2018-03-30T16:16:13.408Z,54.30
2018-03-30T16:18:52.976Z,53.80
2018-03-30T16:21:20.121Z,54.20
2018-03-30T16:23:47.992Z,54.60
2018-03-30T16:26:15.108Z,54.70
2018-03-30T16:28:42.240Z,54.20
2018-03-30T16:31:09.337Z,54.00
2018-03-30T16:33:36.464Z,53.70
2018-03-30T16:36:03.564Z,53.50
2018-03-30T16:38:31.460Z,54.00
2018-03-30T16:40:58.576Z,53.90
2018-03-30T16:43:26.440Z,54.10
2018-03-30T16:45:54.346Z,53.70
2018-03-30T16:48:21.461Z,53.60
2018-03-30T16:50:49.353Z,54.20
2018-03-30T16:53:16.500Z,54.10
2018-03-30T16:55:43.594Z,54.20
2018-03-30T16:58:10.733Z,54.40
2018-03-30T17:00:37.833Z,54.30
2018-03-30T17:03:04.960Z,54.30
2018-03-30T17:05:32.088Z,54.30
2018-03-30T17:07:59.189Z,54.20
2018-03-30T17:10:26.321Z,53.90
2018-03-30T17:12:54.179Z,54.60
2018-03-30T17:15:22.122Z,54.90
2018-03-30T17:17:49.256Z,54.80
2018-03-30T17:20:16.364Z,53.90
2018-03-30T17:22:43.496Z,54.20
2018-03-30T17:25:11.364Z,54.10
2018-03-30T17:27:39.227Z,54.30
2018-03-30T17:30:07.125Z,54.40
2018-03-30T17:32:34.223Z,54.40
2018-03-30T17:35:01.368Z,54.70
2018-03-30T17:37:28.487Z,54.20
2018-03-30T17:39:55.580Z,54.70
2018-03-30T17:42:22.720Z,54.30
2018-03-30T17:44:49.816Z,54.20
2018-03-30T17:47:16.916Z,54.70
2018-03-30T17:49:44.047Z,54.50
2018-03-30T17:52:11.155Z,54.20
2018-03-30T17:54:41.098Z,53.90
2018-03-30T17:57:11.328Z,54.30
2018-03-30T17:59:38.785Z,54.20
2018-03-30T18:02:08.064Z,54.00
2018-03-30T18:04:37.273Z,53.60
2018-03-30T18:07:06.167Z,54.30
2018-03-30T18:09:35.830Z,53.80
2018-03-30T18:12:05.093Z,53.70
2018-03-30T18:14:34.063Z,54.30
2018-03-30T18:17:04.198Z,53.80
2018-03-30T18:19:31.471Z,53.80
2018-03-30T18:21:58.568Z,54.40
2018-03-30T18:24:25.695Z,54.60
2018-03-30T18:26:53.602Z,54.80
2018-03-30T18:29:20.724Z,54.70
2018-03-30T18:31:47.858Z,54.70
2018-03-30T18:34:15.746Z,55.20
2018-03-30T18:36:42.849Z,55.10
2018-03-30T18:39:09.983Z,54.60
2018-03-30T18:41:37.086Z,54.80
2018-03-30T18:44:06.036Z,54.90
2018-03-30T18:46:33.902Z,54.90
2018-03-30T18:49:01.248Z,54.70
2018-03-30T18:51:28.535Z,54.70
2018-03-30T18:53:55.760Z,55.40
2018-03-30T18:56:23.120Z,55.60
2018-03-30T18:58:50.474Z,54.60
2018-03-30T19:01:17.830Z,55.10
2018-03-30T19:03:45.109Z,55.10
2018-03-30T19:06:13.139Z,55.30
2018-03-30T19:08:40.402Z,55.10
2018-03-30T19:11:07.756Z,54.80
2018-03-30T19:13:35.146Z,55.50
2018-03-30T19:16:03.052Z,55.60
2018-03-30T19:18:30.156Z,55.50
2018-03-30T19:20:58.034Z,56.40
2018-03-30T19:23:25.933Z,55.90
2018-03-30T19:25:53.033Z,55.80
2018-03-30T19:28:20.133Z,56.00
2018-03-30T19:30:47.519Z,55.90
2018-03-30T19:33:14.801Z,56.00
2018-03-30T19:35:42.844Z,56.00
2018-03-30T19:38:11.919Z,56.00
2018-03-30T19:40:41.831Z,55.70
2018-03-30T19:43:09.158Z,55.60
2018-03-30T19:45:36.558Z,56.20
2018-03-30T19:48:03.925Z,55.80
2018-03-30T19:50:31.845Z,55.60
2018-03-30T19:52:59.144Z,55.50
2018-03-30T19:55:26.498Z,55.40
2018-03-30T19:57:55.620Z,56.10
2018-03-30T20:00:23.055Z,55.70
2018-03-30T20:02:52.255Z,56.10
2018-03-30T20:05:21.526Z,56.60
2018-03-30T20:07:51.517Z,56.90
2018-03-30T20:10:20.445Z,56.90
2018-03-30T20:12:47.908Z,56.90
2018-03-30T20:15:15.157Z,56.70
2018-03-30T20:17:42.516Z,56.40
2018-03-30T20:20:09.878Z,57.10
2018-03-30T20:22:38.619Z,57.00
2018-03-30T20:25:06.122Z,57.60
2018-03-30T20:27:33.290Z,57.00
2018-03-30T20:30:00.396Z,57.40
2018-03-30T20:32:27.652Z,57.20
2018-03-30T20:34:55.669Z,57.70
2018-03-30T20:37:25.199Z,57.40
2018-03-30T20:39:52.696Z,57.40
2018-03-30T20:42:20.265Z,57.60
2018-03-30T20:44:48.268Z,57.30
2018-03-30T20:47:17.532Z,57.20
2018-03-30T20:49:45.896Z,57.10
2018-03-30T20:52:13.132Z,58.00
2018-03-30T20:54:40.230Z,57.20
2018-03-30T20:57:07.362Z,57.40
2018-03-30T20:59:34.459Z,58.10
2018-03-30T21:02:01.913Z,57.80
2018-03-30T21:04:29.018Z,57.90
2018-03-30T21:06:56.117Z,57.40
2018-03-30T21:09:23.256Z,57.60
2018-03-30T21:11:51.116Z,58.00
2018-03-30T21:14:19.037Z,57.80
2018-03-30T21:16:46.131Z,57.60
2018-03-30T21:19:14.033Z,58.10
2018-03-30T21:21:41.127Z,58.10
2018-03-30T21:24:08.221Z,57.40
2018-03-30T21:26:35.350Z,57.60
2018-03-30T21:29:03.215Z,57.50
2018-03-30T21:31:31.071Z,57.70
2018-03-30T21:33:59.200Z,57.60
2018-03-30T21:36:26.878Z,57.40
2018-03-30T21:38:54.219Z,57.30
2018-03-30T21:41:23.206Z,57.80
2018-03-30T21:43:51.957Z,58.20
2018-03-30T21:46:21.222Z,58.30
2018-03-30T21:48:50.262Z,58.70
2018-03-30T21:51:17.512Z,58.20
2018-03-30T21:53:44.635Z,57.80
2018-03-30T21:56:12.084Z,57.60
2018-03-30T21:58:39.426Z,57.90
2018-03-30T22:01:06.563Z,57.60
2018-03-30T22:03:33.671Z,58.00
2018-03-30T22:08:32.072Z,57.30
2018-03-30T22:10:59.176Z,57.50
2018-03-30T22:13:26.280Z,57.50
2018-03-30T22:15:53.411Z,57.40
2018-03-30T22:18:21.276Z,57.20
2018-03-30T22:20:49.441Z,57.50
2018-03-30T22:23:17.585Z,57.80
2018-03-30T22:25:44.840Z,57.60
2018-03-30T22:28:13.010Z,58.60
2018-03-30T22:30:40.358Z,58.30
2018-03-30T22:33:07.747Z,57.80
2018-03-30T22:35:35.885Z,57.50
2018-03-30T22:38:03.242Z,57.50
2018-03-30T22:40:30.614Z,58.00
2018-03-30T22:42:57.894Z,57.60
2018-03-30T22:45:25.205Z,57.70
2018-03-30T22:47:52.556Z,57.60
2018-03-30T22:50:19.861Z,57.70
2018-03-30T22:52:47.179Z,57.70
2018-03-30T22:55:14.522Z,57.40
2018-03-30T22:57:41.874Z,57.70
2018-03-30T23:00:09.236Z,58.30
2018-03-30T23:02:36.593Z,58.30
2018-03-30T23:05:03.944Z,58.30
2018-03-30T23:07:31.333Z,58.20
2018-03-30T23:09:58.675Z,58.40
2018-03-30T23:12:26.002Z,58.40
2018-03-30T23:14:53.362Z,58.40
2018-03-30T23:17:20.714Z,58.10
2018-03-30T23:19:48.068Z,58.00
2018-03-30T23:22:15.427Z,57.60
2018-03-30T23:24:42.789Z,57.80
2018-03-30T23:27:10.133Z,57.80
2018-03-30T23:29:37.492Z,58.00
2018-03-30T23:32:04.844Z,58.60
2018-03-30T23:34:32.200Z,57.90
2018-03-30T23:36:59.553Z,58.50
2018-03-30T23:39:26.907Z,58.30
2018-03-30T23:41:54.264Z,58.40
2018-03-30T23:44:21.615Z,58.10
2018-03-30T23:46:48.968Z,58.60
2018-03-30T23:49:16.221Z,58.80
2018-03-30T23:51:43.582Z,58.70
2018-03-30T23:54:10.835Z,58.10
2018-03-30T23:56:38.112Z,58.20
2018-03-30T23:59:06.254Z,58.40
